Swan Valley, Idaho
Current Conditions -  °F | °C
As of 6:56 PM on Wednesday 22 Oct 2014 (Local Time) from KDIJ Reporting Station
Clear Clear  
Wind Chill: 33°   Ceiling: Unl
Heat Index: 39°   Visibility: 10mi
Dew Point: 30°   Wind: 8mph
Humidity: 71%   Direction: 40°NE
Pressure: 30.21"   Gusts: NA
Location:  43.46°N, 111.34°W
Report Text: KDIJ 230056Z AUTO 04007KT 10SM CLR 04/M01 A3021 RMK AO2 T00381011 SLP219
Loading
Personal Weather Stations






























Interactive Weather Map New forecast layout! Learn more

10-Day Weather Forecast

Advertisements
Track Severe Weather on mobile